sensor_id;sensor_type;location;lat;lon;timestamp;pressure;altitude;pressure_sealevel;temperature;humidity
54936;BME280;40838;50.676;7.838;2023-04-25T00:01:39;97663.09;;;3.77;100.00
54936;BME280;40838;50.676;7.838;2023-04-25T00:04:06;97662.56;;;3.53;100.00
54936;BME280;40838;50.676;7.838;2023-04-25T00:06:35;97666.69;;;3.22;100.00
54936;BME280;40838;50.676;7.838;2023-04-25T00:09:02;97660.06;;;3.41;100.00
54936;BME280;40838;50.676;7.838;2023-04-25T00:11:32;97665.03;;;3.38;100.00
54936;BME280;40838;50.676;7.838;2023-04-25T00:13:59;97665.25;;;3.58;100.00
54936;BME280;40838;50.676;7.838;2023-04-25T00:16:27;97662.88;;;3.35;100.00
54936;BME280;40838;50.676;7.838;2023-04-25T00:18:56;97668.56;;;3.48;100.00
54936;BME280;40838;50.676;7.838;2023-04-25T00:21:24;97659.81;;;3.43;100.00
54936;BME280;40838;50.676;7.838;2023-04-25T00:23:52;97666.69;;;3.22;100.00
54936;BME280;40838;50.676;7.838;2023-04-25T00:26:19;97664.91;;;3.27;100.00
54936;BME280;40838;50.676;7.838;2023-04-25T00:28:47;97671.66;;;2.79;100.00
54936;BME280;40838;50.676;7.838;2023-04-25T00:31:14;97671.31;;;3.15;100.00
54936;BME280;40838;50.676;7.838;2023-04-25T00:33:41;97671.13;;;2.99;100.00
54936;BME280;40838;50.676;7.838;2023-04-25T00:36:08;97666.44;;;3.01;100.00
54936;BME280;40838;50.676;7.838;2023-04-25T00:38:35;97674.75;;;3.15;100.00
54936;BME280;40838;50.676;7.838;2023-04-25T00:41:06;97670.56;;;2.97;100.00
54936;BME280;40838;50.676;7.838;2023-04-25T00:43:34;97671.31;;;3.15;100.00
54936;BME280;40838;50.676;7.838;2023-04-25T00:46:02;97661.28;;;2.90;100.00
54936;BME280;40838;50.676;7.838;2023-04-25T00:48:29;97667.38;;;2.73;100.00
54936;BME280;40838;50.676;7.838;2023-04-25T00:50:58;97668.22;;;2.79;100.00
54936;BME280;40838;50.676;7.838;2023-04-25T00:53:28;97660.66;;;2.82;100.00
54936;BME280;40838;50.676;7.838;2023-04-25T00:55:57;97657.31;;;3.09;100.00
54936;BME280;40838;50.676;7.838;2023-04-25T00:58:26;97657.50;;;3.02;100.00
54936;BME280;40838;50.676;7.838;2023-04-25T01:00:53;97660.00;;;3.14;100.00
54936;BME280;40838;50.676;7.838;2023-04-25T01:03:21;97650.69;;;3.06;100.00
54936;BME280;40838;50.676;7.838;2023-04-25T01:05:50;97649.97;;;3.11;100.00
54936;BME280;40838;50.676;7.838;2023-04-25T01:08:17;97651.78;;;2.89;100.00
54936;BME280;40838;50.676;7.838;2023-04-25T01:10:44;97662.97;;;2.79;100.00
54936;BME280;40838;50.676;7.838;2023-04-25T01:13:11;97656.06;;;2.56;100.00
54936;BME280;40838;50.676;7.838;2023-04-25T01:15:39;97656.47;;;2.48;100.00
54936;BME280;40838;50.676;7.838;2023-04-25T01:18:06;97665.56;;;2.40;100.00
54936;BME280;40838;50.676;7.838;2023-04-25T01:20:33;97666.72;;;2.32;100.00
54936;BME280;40838;50.676;7.838;2023-04-25T01:23:02;97664.56;;;2.29;100.00
54936;BME280;40838;50.676;7.838;2023-04-25T01:25:30;97665.28;;;2.08;100.00
54936;BME280;40838;50.676;7.838;2023-04-25T01:27:57;97670.44;;;2.03;100.00
54936;BME280;40838;50.676;7.838;2023-04-25T01:30:26;97671.97;;;1.99;100.00
54936;BME280;40838;50.676;7.838;2023-04-25T01:32:54;97673.66;;;2.05;100.00
54936;BME280;40838;50.676;7.838;2023-04-25T01:35:21;97662.47;;;1.98;100.00
54936;BME280;40838;50.676;7.838;2023-04-25T01:37:53;97668.41;;;2.05;100.00
54936;BME280;40838;50.676;7.838;2023-04-25T01:40:21;97671.19;;;2.15;100.00
54936;BME280;40838;50.676;7.838;2023-04-25T01:42:51;97675.28;;;1.94;100.00
54936;BME280;40838;50.676;7.838;2023-04-25T01:45:20;97680.44;;;1.89;100.00
54936;BME280;40838;50.676;7.838;2023-04-25T01:47:47;97677.13;;;1.93;100.00
54936;BME280;40838;50.676;7.838;2023-04-25T01:50:16;97676.66;;;1.97;100.00
54936;BME280;40838;50.676;7.838;2023-04-25T01:52:43;97683.81;;;2.01;100.00
54936;BME280;40838;50.676;7.838;2023-04-25T01:55:11;97685.53;;;1.79;100.00
54936;BME280;40838;50.676;7.838;2023-04-25T01:57:45;97685.13;;;1.70;100.00
54936;BME280;40838;50.676;7.838;2023-04-25T02:00:12;97677.34;;;1.75;100.00
54936;BME280;40838;50.676;7.838;2023-04-25T02:02:39;97686.13;;;1.69;100.00
54936;BME280;40838;50.676;7.838;2023-04-25T02:05:34;97690.59;;;1.68;100.00
54936;BME280;40838;50.676;7.838;2023-04-25T02:08:04;97683.88;;;1.89;100.00
54936;BME280;40838;50.676;7.838;2023-04-25T02:10:32;97687.09;;;2.08;100.00
54936;BME280;40838;50.676;7.838;2023-04-25T02:13:15;97686.31;;;1.79;100.00
54936;BME280;40838;50.676;7.838;2023-04-25T02:16:02;97688.66;;;1.92;100.00
54936;BME280;40838;50.676;7.838;2023-04-25T02:18:29;97694.72;;;1.93;100.00
54936;BME280;40838;50.676;7.838;2023-04-25T02:21:03;97688.88;;;2.20;100.00
54936;BME280;40838;50.676;7.838;2023-04-25T02:23:30;97686.31;;;2.25;100.00
54936;BME280;40838;50.676;7.838;2023-04-25T02:25:59;97688.63;;;2.21;100.00
54936;BME280;40838;50.676;7.838;2023-04-25T02:28:27;97683.22;;;2.11;100.00
54936;BME280;40838;50.676;7.838;2023-04-25T02:30:54;97692.88;;;1.93;100.00
54936;BME280;40838;50.676;7.838;2023-04-25T02:33:23;97692.88;;;1.93;100.00
54936;BME280;40838;50.676;7.838;2023-04-25T02:35:49;97695.84;;;1.97;100.00
54936;BME280;40838;50.676;7.838;2023-04-25T02:38:16;97693.16;;;1.80;100.00
54936;BME280;40838;50.676;7.838;2023-04-25T02:40:43;97695.97;;;2.19;100.00
54936;BME280;40838;50.676;7.838;2023-04-25T02:43:10;97689.06;;;2.47;100.00
54936;BME280;40838;50.676;7.838;2023-04-25T02:45:40;97693.28;;;2.48;100.00
54936;BME280;40838;50.676;7.838;2023-04-25T02:48:06;97697.84;;;2.24;100.00
54936;BME280;40838;50.676;7.838;2023-04-25T02:50:33;97696.19;;;2.17;100.00
54936;BME280;40838;50.676;7.838;2023-04-25T02:53:00;97690.78;;;2.24;100.00
54936;BME280;40838;50.676;7.838;2023-04-25T02:55:34;97694.84;;;2.32;100.00
54936;BME280;40838;50.676;7.838;2023-04-25T02:58:03;97689.09;;;2.18;100.00
54936;BME280;40838;50.676;7.838;2023-04-25T03:00:44;97687.63;;;2.39;100.00
54936;BME280;40838;50.676;7.838;2023-04-25T03:03:11;97690.25;;;2.56;100.00
54936;BME280;40838;50.676;7.838;2023-04-25T03:05:38;97689.44;;;2.38;100.00
54936;BME280;40838;50.676;7.838;2023-04-25T03:08:05;97691.78;;;2.52;100.00
54936;BME280;40838;50.676;7.838;2023-04-25T03:10:36;97692.78;;;2.34;100.00
54936;BME280;40838;50.676;7.838;2023-04-25T03:13:05;97685.97;;;2.04;100.00
54936;BME280;40838;50.676;7.838;2023-04-25T03:15:32;97684.41;;;2.20;100.00
54936;BME280;40838;50.676;7.838;2023-04-25T03:18:00;97690.53;;;2.26;100.00
54936;BME280;40838;50.676;7.838;2023-04-25T03:20:29;97681.88;;;2.59;100.00
54936;BME280;40838;50.676;7.838;2023-04-25T03:22:56;97687.88;;;2.54;100.00
54936;BME280;40838;50.676;7.838;2023-04-25T03:25:26;97682.75;;;2.65;100.00
54936;BME280;40838;50.676;7.838;2023-04-25T03:27:53;97685.72;;;2.51;100.00
54936;BME280;40838;50.676;7.838;2023-04-25T03:30:21;97676.41;;;2.44;100.00
54936;BME280;40838;50.676;7.838;2023-04-25T03:32:48;97682.94;;;2.58;100.00
54936;BME280;40838;50.676;7.838;2023-04-25T03:35:18;97676.69;;;2.64;100.00
54936;BME280;40838;50.676;7.838;2023-04-25T03:37:45;97680.94;;;2.48;100.00
54936;BME280;40838;50.676;7.838;2023-04-25T03:40:16;97692.31;;;2.54;100.00
54936;BME280;40838;50.676;7.838;2023-04-25T03:43:01;97687.66;;;2.27;100.00
54936;BME280;40838;50.676;7.838;2023-04-25T03:45:28;97681.28;;;2.06;100.00
54936;BME280;40838;50.676;7.838;2023-04-25T03:47:55;97681.91;;;1.97;100.00
54936;BME280;40838;50.676;7.838;2023-04-25T03:50:23;97686.59;;;1.66;100.00
54936;BME280;40838;50.676;7.838;2023-04-25T03:52:50;97684.34;;;1.86;100.00
54936;BME280;40838;50.676;7.838;2023-04-25T03:55:17;97688.47;;;1.54;100.00
54936;BME280;40838;50.676;7.838;2023-04-25T03:57:44;97691.47;;;1.45;100.00
54936;BME280;40838;50.676;7.838;2023-04-25T04:00:12;97694.97;;;1.51;100.00
54936;BME280;40838;50.676;7.838;2023-04-25T04:02:39;97693.06;;;1.46;100.00
54936;BME280;40838;50.676;7.838;2023-04-25T04:05:07;97695.25;;;1.38;100.00
54936;BME280;40838;50.676;7.838;2023-04-25T04:07:40;97694.38;;;1.20;100.00
54936;BME280;40838;50.676;7.838;2023-04-25T04:10:10;97699.63;;;1.20;100.00
54936;BME280;40838;50.676;7.838;2023-04-25T04:12:38;97693.31;;;1.33;100.00
54936;BME280;40838;50.676;7.838;2023-04-25T04:15:06;97692.97;;;1.41;100.00
54936;BME280;40838;50.676;7.838;2023-04-25T04:17:35;97698.09;;;1.36;100.00
54936;BME280;40838;50.676;7.838;2023-04-25T04:20:03;97699.25;;;1.40;100.00
54936;BME280;40838;50.676;7.838;2023-04-25T04:22:32;97700.47;;;0.97;100.00
54936;BME280;40838;50.676;7.838;2023-04-25T04:25:06;97701.47;;;1.20;100.00
54936;BME280;40838;50.676;7.838;2023-04-25T04:28:08;97706.81;;;1.25;100.00
54936;BME280;40838;50.676;7.838;2023-04-25T04:30:45;97703.16;;;1.26;100.00
54936;BME280;40838;50.676;7.838;2023-04-25T04:33:12;97703.50;;;1.30;100.00
54936;BME280;40838;50.676;7.838;2023-04-25T04:35:41;97706.59;;;1.26;100.00
54936;BME280;40838;50.676;7.838;2023-04-25T04:38:09;97705.44;;;1.22;100.00
54936;BME280;40838;50.676;7.838;2023-04-25T04:40:38;97704.84;;;1.32;100.00
54936;BME280;40838;50.676;7.838;2023-04-25T04:43:20;97712.72;;;1.32;100.00
54936;BME280;40838;50.676;7.838;2023-04-25T04:45:51;97706.06;;;1.53;100.00
54936;BME280;40838;50.676;7.838;2023-04-25T04:48:21;97721.19;;;1.63;100.00
54936;BME280;40838;50.676;7.838;2023-04-25T04:51:07;97725.81;;;1.84;100.00
54936;BME280;40838;50.676;7.838;2023-04-25T04:53:52;97726.47;;;1.91;100.00
54936;BME280;40838;50.676;7.838;2023-04-25T04:56:35;97722.66;;;2.28;100.00
54936;BME280;40838;50.676;7.838;2023-04-25T04:59:38;97732.22;;;2.51;100.00
54936;BME280;40838;50.676;7.838;2023-04-25T05:02:37;97744.41;;;2.57;100.00
54936;BME280;40838;50.676;7.838;2023-04-25T05:05:23;97748.59;;;2.70;100.00
54936;BME280;40838;50.676;7.838;2023-04-25T05:08:10;97744.81;;;2.82;100.00
54936;BME280;40838;50.676;7.838;2023-04-25T05:10:52;97751.13;;;2.81;100.00
54936;BME280;40838;50.676;7.838;2023-04-25T05:13:31;97750.81;;;2.78;100.00
54936;BME280;40838;50.676;7.838;2023-04-25T05:16:24;97764.25;;;2.48;100.00
54936;BME280;40838;50.676;7.838;2023-04-25T05:18:56;97763.50;;;2.35;100.00
54936;BME280;40838;50.676;7.838;2023-04-25T05:21:41;97755.19;;;2.38;100.00
54936;BME280;40838;50.676;7.838;2023-04-25T05:24:21;97761.75;;;2.70;100.00
54936;BME280;40838;50.676;7.838;2023-04-25T05:27:10;97758.28;;;3.03;100.00
54936;BME280;40838;50.676;7.838;2023-04-25T05:29:49;97763.72;;;3.13;100.00
54936;BME280;40838;50.676;7.838;2023-04-25T05:32:24;97761.56;;;3.10;100.00
54936;BME280;40838;50.676;7.838;2023-04-25T05:34:52;97768.81;;;3.03;100.00
54936;BME280;40838;50.676;7.838;2023-04-25T05:37:23;97765.06;;;2.65;100.00
54936;BME280;40838;50.676;7.838;2023-04-25T05:40:11;97773.59;;;2.89;100.00
54936;BME280;40838;50.676;7.838;2023-04-25T05:42:43;97773.44;;;2.79;100.00
54936;BME280;40838;50.676;7.838;2023-04-25T05:45:21;97779.34;;;2.52;100.00
54936;BME280;40838;50.676;7.838;2023-04-25T05:48:11;97781.03;;;2.75;100.00
54936;BME280;40838;50.676;7.838;2023-04-25T05:51:00;97784.47;;;2.93;100.00
54936;BME280;40838;50.676;7.838;2023-04-25T05:53:45;97779.72;;;2.44;100.00
54936;BME280;40838;50.676;7.838;2023-04-25T05:56:14;97792.28;;;2.42;100.00
54936;BME280;40838;50.676;7.838;2023-04-25T05:58:41;97805.66;;;2.69;100.00
54936;BME280;40838;50.676;7.838;2023-04-25T06:01:11;97799.75;;;2.79;100.00
54936;BME280;40838;50.676;7.838;2023-04-25T06:03:38;97794.59;;;3.01;100.00
54936;BME280;40838;50.676;7.838;2023-04-25T06:06:08;97797.22;;;3.01;100.00
54936;BME280;40838;50.676;7.838;2023-04-25T06:08:35;97799.91;;;3.06;100.00
54936;BME280;40838;50.676;7.838;2023-04-25T06:11:03;97806.31;;;3.10;100.00
54936;BME280;40838;50.676;7.838;2023-04-25T06:13:30;97806.44;;;3.03;100.00
54936;BME280;40838;50.676;7.838;2023-04-25T06:15:57;97799.22;;;3.32;100.00
54936;BME280;40838;50.676;7.838;2023-04-25T06:18:26;97804.34;;;3.39;100.00
54936;BME280;40838;50.676;7.838;2023-04-25T06:20:53;97796.97;;;3.41;100.00
54936;BME280;40838;50.676;7.838;2023-04-25T06:23:21;97804.63;;;3.60;100.00
54936;BME280;40838;50.676;7.838;2023-04-25T06:26:00;97801.28;;;3.91;100.00
54936;BME280;40838;50.676;7.838;2023-04-25T06:28:29;97805.34;;;4.26;100.00
54936;BME280;40838;50.676;7.838;2023-04-25T06:30:55;97803.44;;;4.16;100.00
54936;BME280;40838;50.676;7.838;2023-04-25T06:33:22;97813.38;;;3.26;100.00
54936;BME280;40838;50.676;7.838;2023-04-25T06:35:52;97813.19;;;3.72;100.00
54936;BME280;40838;50.676;7.838;2023-04-25T06:38:23;97813.97;;;3.72;100.00
54936;BME280;40838;50.676;7.838;2023-04-25T06:40:51;97816.25;;;3.08;100.00
54936;BME280;40838;50.676;7.838;2023-04-25T06:43:18;97816.47;;;3.06;100.00
54936;BME280;40838;50.676;7.838;2023-04-25T06:46:04;97818.06;;;2.74;100.00
54936;BME280;40838;50.676;7.838;2023-04-25T06:48:34;97821.91;;;3.34;100.00
54936;BME280;40838;50.676;7.838;2023-04-25T06:51:03;97822.78;;;2.89;100.00
54936;BME280;40838;50.676;7.838;2023-04-25T06:53:30;97827.19;;;3.17;100.00
54936;BME280;40838;50.676;7.838;2023-04-25T06:56:00;97827.97;;;3.34;100.00
54936;BME280;40838;50.676;7.838;2023-04-25T06:58:50;97827.97;;;3.17;100.00
54936;BME280;40838;50.676;7.838;2023-04-25T07:01:34;97829.38;;;3.81;100.00
54936;BME280;40838;50.676;7.838;2023-04-25T07:04:04;97836.53;;;4.29;100.00
54936;BME280;40838;50.676;7.838;2023-04-25T07:06:34;97830.34;;;4.18;100.00
54936;BME280;40838;50.676;7.838;2023-04-25T07:09:03;97836.59;;;3.68;100.00
54936;BME280;40838;50.676;7.838;2023-04-25T07:11:30;97824.50;;;4.16;100.00
54936;BME280;40838;50.676;7.838;2023-04-25T07:13:57;97825.66;;;4.26;100.00
54936;BME280;40838;50.676;7.838;2023-04-25T07:16:24;97823.75;;;5.87;100.00
54936;BME280;40838;50.676;7.838;2023-04-25T07:18:51;97822.28;;;6.22;100.00
54936;BME280;40838;50.676;7.838;2023-04-25T07:21:18;97827.84;;;4.88;100.00
54936;BME280;40838;50.676;7.838;2023-04-25T07:23:48;97831.91;;;5.33;100.00
54936;BME280;40838;50.676;7.838;2023-04-25T07:26:19;97838.75;;;4.97;100.00
54936;BME280;40838;50.676;7.838;2023-04-25T07:29:09;97836.94;;;5.02;100.00
54936;BME280;40838;50.676;7.838;2023-04-25T07:31:36;97830.19;;;6.07;100.00
54936;BME280;40838;50.676;7.838;2023-04-25T07:34:03;97836.31;;;5.65;100.00
54936;BME280;40838;50.676;7.838;2023-04-25T07:36:31;97834.13;;;4.77;100.00
54936;BME280;40838;50.676;7.838;2023-04-25T07:38:59;97837.88;;;4.10;100.00
54936;BME280;40838;50.676;7.838;2023-04-25T07:41:26;97842.16;;;4.92;100.00
54936;BME280;40838;50.676;7.838;2023-04-25T07:43:53;97842.78;;;4.72;100.00
54936;BME280;40838;50.676;7.838;2023-04-25T07:46:20;97844.56;;;5.78;100.00
54936;BME280;40838;50.676;7.838;2023-04-25T07:48:47;97844.34;;;5.05;100.00
54936;BME280;40838;50.676;7.838;2023-04-25T07:51:14;97852.09;;;6.02;99.22
54936;BME280;40838;50.676;7.838;2023-04-25T07:53:41;97846.75;;;5.87;98.34
54936;BME280;40838;50.676;7.838;2023-04-25T07:56:13;97853.94;;;6.01;97.94
54936;BME280;40838;50.676;7.838;2023-04-25T07:58:43;97859.38;;;5.32;100.00
54936;BME280;40838;50.676;7.838;2023-04-25T08:01:13;97857.00;;;4.00;100.00
54936;BME280;40838;50.676;7.838;2023-04-25T08:03:53;97856.28;;;4.05;100.00
54936;BME280;40838;50.676;7.838;2023-04-25T08:06:32;97871.78;;;4.23;100.00
54936;BME280;40838;50.676;7.838;2023-04-25T08:09:07;97871.38;;;4.31;100.00
54936;BME280;40838;50.676;7.838;2023-04-25T08:11:39;97870.25;;;4.76;100.00
54936;BME280;40838;50.676;7.838;2023-04-25T08:14:08;97880.06;;;4.81;100.00
54936;BME280;40838;50.676;7.838;2023-04-25T08:16:36;97876.03;;;5.00;100.00
54936;BME280;40838;50.676;7.838;2023-04-25T08:19:04;97884.16;;;5.68;97.67
54936;BME280;40838;50.676;7.838;2023-04-25T08:21:33;97881.31;;;5.80;98.42
54936;BME280;40838;50.676;7.838;2023-04-25T08:24:04;97892.53;;;4.90;100.00
54936;BME280;40838;50.676;7.838;2023-04-25T08:26:35;97891.72;;;5.54;99.56
54936;BME280;40838;50.676;7.838;2023-04-25T08:29:04;97898.63;;;5.61;97.48
54936;BME280;40838;50.676;7.838;2023-04-25T08:31:32;97903.44;;;5.31;100.00
54936;BME280;40838;50.676;7.838;2023-04-25T08:34:01;97900.84;;;5.04;100.00
54936;BME280;40838;50.676;7.838;2023-04-25T08:36:42;97900.06;;;5.04;100.00
54936;BME280;40838;50.676;7.838;2023-04-25T08:39:22;97917.88;;;5.51;97.15
54936;BME280;40838;50.676;7.838;2023-04-25T08:42:12;97911.00;;;5.50;98.49
54936;BME280;40838;50.676;7.838;2023-04-25T08:44:40;97920.84;;;5.27;96.98
54936;BME280;40838;50.676;7.838;2023-04-25T08:47:07;97926.31;;;5.16;94.50
54936;BME280;40838;50.676;7.838;2023-04-25T08:49:49;97925.75;;;5.46;95.86
54936;BME280;40838;50.676;7.838;2023-04-25T08:52:21;97924.22;;;5.92;92.92
54936;BME280;40838;50.676;7.838;2023-04-25T08:54:48;97924.69;;;6.37;90.18
54936;BME280;40838;50.676;7.838;2023-04-25T08:57:17;97934.69;;;5.77;94.19
54936;BME280;40838;50.676;7.838;2023-04-25T08:59:47;97941.53;;;5.08;97.39
54936;BME280;40838;50.676;7.838;2023-04-25T09:02:16;97938.41;;;5.81;96.52
54936;BME280;40838;50.676;7.838;2023-04-25T09:04:48;97952.03;;;4.98;98.65
54936;BME280;40838;50.676;7.838;2023-04-25T09:07:16;97945.75;;;5.37;97.00
54936;BME280;40838;50.676;7.838;2023-04-25T09:09:46;97956.03;;;4.79;98.13
54936;BME280;40838;50.676;7.838;2023-04-25T09:12:18;97961.00;;;4.75;94.56
54936;BME280;40838;50.676;7.838;2023-04-25T09:15:01;97950.38;;;4.92;97.46
54936;BME280;40838;50.676;7.838;2023-04-25T09:17:43;97960.31;;;4.85;100.00
54936;BME280;40838;50.676;7.838;2023-04-25T09:20:13;97975.81;;;4.54;100.00
54936;BME280;40838;50.676;7.838;2023-04-25T09:22:40;97977.28;;;4.67;100.00
54936;BME280;40838;50.676;7.838;2023-04-25T09:25:09;97973.34;;;4.92;100.00
54936;BME280;40838;50.676;7.838;2023-04-25T09:27:49;97977.72;;;3.81;100.00
54936;BME280;40838;50.676;7.838;2023-04-25T09:30:31;97980.97;;;4.66;100.00
54936;BME280;40838;50.676;7.838;2023-04-25T09:33:27;97974.00;;;6.00;91.39
54936;BME280;40838;50.676;7.838;2023-04-25T09:36:01;97980.63;;;6.56;86.57
54936;BME280;40838;50.676;7.838;2023-04-25T09:38:55;97975.50;;;7.22;78.93
54936;BME280;40838;50.676;7.838;2023-04-25T09:41:26;97981.88;;;7.88;77.83
54936;BME280;40838;50.676;7.838;2023-04-25T09:43:56;97979.69;;;8.25;67.68
54936;BME280;40838;50.676;7.838;2023-04-25T09:46:33;97979.31;;;6.58;74.27
54936;BME280;40838;50.676;7.838;2023-04-25T09:49:06;97986.66;;;6.41;70.03
54936;BME280;40838;50.676;7.838;2023-04-25T09:51:54;97983.63;;;6.17;62.39
54936;BME280;40838;50.676;7.838;2023-04-25T09:54:22;97984.72;;;6.99;63.13
54936;BME280;40838;50.676;7.838;2023-04-25T09:56:57;97991.28;;;6.76;63.52
54936;BME280;40838;50.676;7.838;2023-04-25T09:59:29;97993.19;;;5.86;72.83
54936;BME280;40838;50.676;7.838;2023-04-25T10:01:59;98000.06;;;5.54;72.64
54936;BME280;40838;50.676;7.838;2023-04-25T10:04:34;97998.16;;;5.82;69.64
54936;BME280;40838;50.676;7.838;2023-04-25T10:07:11;98000.25;;;5.80;65.84
54936;BME280;40838;50.676;7.838;2023-04-25T10:09:39;98008.72;;;5.18;70.71
54936;BME280;40838;50.676;7.838;2023-04-25T10:12:06;98009.44;;;4.86;74.66
54936;BME280;40838;50.676;7.838;2023-04-25T10:14:34;98014.22;;;4.89;74.49
54936;BME280;40838;50.676;7.838;2023-04-25T10:17:02;98015.00;;;4.89;75.42
54936;BME280;40838;50.676;7.838;2023-04-25T10:19:29;98014.16;;;4.84;77.97
54936;BME280;40838;50.676;7.838;2023-04-25T10:22:04;98029.84;;;4.96;79.88
54936;BME280;40838;50.676;7.838;2023-04-25T10:24:32;98031.56;;;4.41;82.02
54936;BME280;40838;50.676;7.838;2023-04-25T10:26:59;98030.31;;;4.65;84.05
54936;BME280;40838;50.676;7.838;2023-04-25T10:29:27;98029.69;;;4.80;82.32
54936;BME280;40838;50.676;7.838;2023-04-25T10:31:54;98025.50;;;4.84;83.30
54936;BME280;40838;50.676;7.838;2023-04-25T10:34:37;98031.84;;;5.32;82.51
54936;BME280;40838;50.676;7.838;2023-04-25T10:37:05;98031.53;;;5.29;76.51
54936;BME280;40838;50.676;7.838;2023-04-25T10:39:34;98023.25;;;6.12;72.19
54936;BME280;40838;50.676;7.838;2023-04-25T10:42:02;98024.09;;;5.26;72.09
54936;BME280;40838;50.676;7.838;2023-04-25T10:44:30;98024.84;;;6.13;64.99
54936;BME280;40838;50.676;7.838;2023-04-25T10:46:58;98023.50;;;6.63;58.11
54936;BME280;40838;50.676;7.838;2023-04-25T10:49:32;98030.41;;;7.63;62.73
54936;BME280;40838;50.676;7.838;2023-04-25T10:52:15;98037.78;;;8.27;57.99
54936;BME280;40838;50.676;7.838;2023-04-25T10:54:43;98037.16;;;9.31;53.98
54936;BME280;40838;50.676;7.838;2023-04-25T10:57:32;98040.09;;;7.16;59.71
54936;BME280;40838;50.676;7.838;2023-04-25T11:00:06;98036.31;;;6.81;65.75
54936;BME280;40838;50.676;7.838;2023-04-25T11:02:38;98037.72;;;7.14;56.50
54936;BME280;40838;50.676;7.838;2023-04-25T11:05:08;98038.41;;;6.79;59.72
54936;BME280;40838;50.676;7.838;2023-04-25T11:07:38;98037.19;;;7.02;60.96
54936;BME280;40838;50.676;7.838;2023-04-25T11:10:08;98038.72;;;6.98;59.44
54936;BME280;40838;50.676;7.838;2023-04-25T11:12:35;98035.25;;;6.30;59.57
54936;BME280;40838;50.676;7.838;2023-04-25T11:15:04;98036.75;;;7.36;55.89
54936;BME280;40838;50.676;7.838;2023-04-25T11:17:31;98039.63;;;8.57;50.24
54936;BME280;40838;50.676;7.838;2023-04-25T11:19:58;98052.38;;;7.37;52.88
54936;BME280;40838;50.676;7.838;2023-04-25T11:22:27;98045.78;;;7.55;52.29
54936;BME280;40838;50.676;7.838;2023-04-25T11:24:55;98050.81;;;7.62;53.87
54936;BME280;40838;50.676;7.838;2023-04-25T11:27:22;98057.41;;;6.66;60.32
54936;BME280;40838;50.676;7.838;2023-04-25T11:29:50;98052.66;;;6.20;61.45
54936;BME280;40838;50.676;7.838;2023-04-25T11:32:17;98059.81;;;5.55;65.29
54936;BME280;40838;50.676;7.838;2023-04-25T11:34:44;98063.13;;;5.73;70.92
54936;BME280;40838;50.676;7.838;2023-04-25T11:37:11;98070.44;;;5.11;76.02
54936;BME280;40838;50.676;7.838;2023-04-25T11:39:44;98080.41;;;4.43;87.41
54936;BME280;40838;50.676;7.838;2023-04-25T11:42:12;98082.09;;;4.33;91.90
54936;BME280;40838;50.676;7.838;2023-04-25T11:44:39;98073.25;;;5.05;91.35
54936;BME280;40838;50.676;7.838;2023-04-25T11:47:07;98070.78;;;5.74;88.97
54936;BME280;40838;50.676;7.838;2023-04-25T11:49:35;98063.63;;;6.02;83.45
54936;BME280;40838;50.676;7.838;2023-04-25T11:52:02;98062.47;;;6.25;81.23
54936;BME280;40838;50.676;7.838;2023-04-25T11:54:29;98049.94;;;6.05;80.27
54936;BME280;40838;50.676;7.838;2023-04-25T11:56:57;98051.50;;;7.22;75.65
54936;BME280;40838;50.676;7.838;2023-04-25T11:59:25;98046.56;;;7.56;76.11
54936;BME280;40838;50.676;7.838;2023-04-25T12:01:53;98045.78;;;8.22;64.03
54936;BME280;40838;50.676;7.838;2023-04-25T12:04:21;98049.75;;;7.89;76.87
54936;BME280;40838;50.676;7.838;2023-04-25T12:06:48;98052.91;;;8.52;63.63
54936;BME280;40838;50.676;7.838;2023-04-25T12:09:17;98055.97;;;8.80;60.16
54936;BME280;40838;50.676;7.838;2023-04-25T12:11:45;98048.69;;;8.31;56.50
54936;BME280;40838;50.676;7.838;2023-04-25T12:14:20;98060.91;;;8.01;54.70
54936;BME280;40838;50.676;7.838;2023-04-25T12:16:49;98058.16;;;7.24;55.93
54936;BME280;40838;50.676;7.838;2023-04-25T12:19:17;98064.56;;;7.33;57.82
54936;BME280;40838;50.676;7.838;2023-04-25T12:21:44;98061.13;;;7.38;59.35
54936;BME280;40838;50.676;7.838;2023-04-25T12:24:12;98076.34;;;6.42;63.63
54936;BME280;40838;50.676;7.838;2023-04-25T12:26:50;98082.78;;;6.19;67.79
54936;BME280;40838;50.676;7.838;2023-04-25T12:29:20;98083.97;;;5.96;78.42
54936;BME280;40838;50.676;7.838;2023-04-25T12:31:47;98092.03;;;5.85;82.69
54936;BME280;40838;50.676;7.838;2023-04-25T12:34:14;98107.38;;;5.61;84.01
54936;BME280;40838;50.676;7.838;2023-04-25T12:36:41;98109.78;;;5.62;86.14
54936;BME280;40838;50.676;7.838;2023-04-25T12:39:08;98114.75;;;5.31;86.41
54936;BME280;40838;50.676;7.838;2023-04-25T12:41:36;98105.44;;;5.78;84.06
54936;BME280;40838;50.676;7.838;2023-04-25T12:44:03;98102.56;;;5.79;86.24
54936;BME280;40838;50.676;7.838;2023-04-25T12:46:34;98103.13;;;6.14;80.99
54936;BME280;40838;50.676;7.838;2023-04-25T12:49:01;98102.00;;;6.05;81.11
54936;BME280;40838;50.676;7.838;2023-04-25T12:51:29;98100.44;;;6.46;76.46
54936;BME280;40838;50.676;7.838;2023-04-25T12:53:56;98108.94;;;5.56;74.32
54936;BME280;40838;50.676;7.838;2023-04-25T12:56:23;98106.75;;;5.48;72.34
54936;BME280;40838;50.676;7.838;2023-04-25T12:58:51;98100.44;;;5.81;65.56
54936;BME280;40838;50.676;7.838;2023-04-25T13:01:17;98092.13;;;6.27;63.91
54936;BME280;40838;50.676;7.838;2023-04-25T13:03:46;98092.97;;;6.85;63.06
54936;BME280;40838;50.676;7.838;2023-04-25T13:06:13;98092.97;;;6.00;58.17
54936;BME280;40838;50.676;7.838;2023-04-25T13:08:40;98087.38;;;7.50;58.16
54936;BME280;40838;50.676;7.838;2023-04-25T13:11:08;98093.00;;;6.96;52.74
54936;BME280;40838;50.676;7.838;2023-04-25T13:13:35;98093.28;;;6.41;60.84
54936;BME280;40838;50.676;7.838;2023-04-25T13:16:02;98089.78;;;6.83;57.36
54936;BME280;40838;50.676;7.838;2023-04-25T13:18:30;98087.63;;;7.48;54.90
54936;BME280;40838;50.676;7.838;2023-04-25T13:20:58;98088.78;;;6.94;53.92
54936;BME280;40838;50.676;7.838;2023-04-25T13:23:27;98088.66;;;6.69;52.92
54936;BME280;40838;50.676;7.838;2023-04-25T13:25:54;98076.25;;;7.37;53.67